Time;durP1;ratioP1;P1;durP2;ratioP2;P2;SDS_P1;SDS_P2;PMS_P1;PMS_P2;Temp;Humidity;BMP_temperature;BMP_pressure;BME280_temperature;BME280_humidity;BME280_pressure;Samples;Min_cycle;Max_cycle;Signal;HPM_P1;HPM_P2
2022/05/26 05:37:32;;;;;;;1.65;1.55;;;;;;;17.19;64.83;100913.41;5436481;27;20146;-86
2022/05/26 06:22:31;;;;;;;1.55;1.00;;;;;;;18.71;59.09;100929.66;1384538;27;20142;-87
2022/05/26 06:25:34;;;;;;;1.10;1.00;;;;;;;18.86;57.91;100926.66;5407620;27;31970;-87
2022/05/26 06:38:44;;;;;;;1.50;1.17;;;;;;;19.31;58.07;100946.53;5422018;27;31770;-86
2022/05/26 06:54:04;;;;;;;1.08;1.02;;;;;;;19.44;56.80;100962.78;955360;27;21531;-87
2022/05/26 07:01:09;;;;;;;1.25;1.15;;;;;;;19.94;54.73;100961.97;5251658;31;20127;-87
2022/05/26 07:04:12;;;;;;;1.12;1.00;;;;;;;20.07;53.56;100950.91;5361126;33;33541;-85
2022/05/26 07:07:17;;;;;;;1.17;1.08;;;;;;;20.08;54.46;100963.50;5347359;33;32109;-83
2022/05/26 07:10:20;;;;;;;0.75;0.75;;;;;;;20.19;54.00;100955.63;5345974;33;32593;-84
2022/05/26 07:13:24;;;;;;;3.37;0.98;;;;;;;20.13;53.88;100960.94;5343462;33;30374;-84
2022/05/26 07:16:27;;;;;;;2.47;0.88;;;;;;;20.24;53.92;100948.41;5343282;33;34566;-84
2022/05/26 07:19:36;;;;;;;0.75;0.70;;;;;;;20.44;53.25;100950.88;5343341;33;33560;-84
2022/05/26 07:22:39;;;;;;;0.60;0.60;;;;;;;20.53;53.77;100957.78;5348327;33;32416;-84
2022/05/26 07:25:43;;;;;;;1.48;0.95;;;;;;;20.29;53.44;100951.28;5361612;33;34369;-83
2022/05/26 07:28:46;;;;;;;0.75;0.70;;;;;;;20.40;53.60;100960.62;5357714;33;34269;-84
2022/05/26 07:31:49;;;;;;;1.42;1.02;;;;;;;20.34;54.01;100956.06;5349912;33;32003;-84
2022/05/26 07:34:52;;;;;;;0.60;0.60;;;;;;;20.46;53.85;100969.81;5363994;33;33633;-84
2022/05/26 07:41:22;;;;;;;1.25;1.15;;;;;;;20.86;53.35;100972.09;5353490;33;34621;-84
2022/05/26 07:44:26;;;;;;;0.65;0.65;;;;;;;20.84;53.11;100986.81;5346723;33;32024;-84
2022/05/26 07:47:30;;;;;;;3.10;1.00;;;;;;;20.81;53.51;100984.53;5358566;33;33215;-84
2022/05/26 07:50:32;;;;;;;0.60;0.60;;;;;;;20.93;53.31;100981.84;5355573;33;33102;-88
2022/05/26 07:53:35;;;;;;;0.93;0.93;;;;;;;21.02;53.14;100983.19;5346609;33;32333;-88
2022/05/26 07:56:38;;;;;;;0.77;0.77;;;;;;;21.28;53.44;100992.09;5346706;33;32017;-89
2022/05/26 07:59:42;;;;;;;0.90;0.90;;;;;;;21.46;52.84;100992.06;5343250;33;32316;-88
2022/05/26 08:02:45;;;;;;;0.98;0.98;;;;;;;21.31;52.23;100993.53;5347838;33;32678;-85
2022/05/26 08:05:48;;;;;;;0.60;0.60;;;;;;;21.27;53.14;100998.66;5360252;33;33366;-85
2022/05/26 08:08:51;;;;;;;0.93;0.88;;;;;;;21.44;52.63;100999.69;5361618;33;33439;-85
2022/05/26 08:11:54;;;;;;;1.48;1.02;;;;;;;21.63;51.15;100996.87;5347737;33;33417;-85
2022/05/26 08:14:57;;;;;;;0.93;0.93;;;;;;;21.71;50.50;100991.88;5358005;33;34009;-84
2022/05/26 08:18:00;;;;;;;0.75;0.75;;;;;;;21.86;49.80;100990.56;5361841;33;33522;-83
2022/05/26 08:21:12;;;;;;;1.60;1.15;;;;;;;21.93;49.81;100985.81;5348774;33;33197;-84
2022/05/26 08:24:19;;;;;;;1.55;1.15;;;;;;;22.28;49.58;100983.06;5346926;33;32574;-84
2022/05/26 08:27:23;;;;;;;1.10;1.00;;;;;;;22.32;49.32;100987.00;5361427;33;33128;-83
2022/05/26 08:30:27;;;;;;;0.70;0.70;;;;;;;22.22;49.62;100988.69;5360593;33;35216;-83
2022/05/26 08:33:30;;;;;;;1.52;1.00;;;;;;;22.16;48.58;100974.81;5358399;33;33551;-84
2022/05/26 08:36:34;;;;;;;0.95;0.95;;;;;;;22.40;49.93;100992.09;5338574;33;32058;-84
2022/05/26 08:39:37;;;;;;;1.12;0.73;;;;;;;22.46;48.73;100990.31;5353789;33;33352;-84
2022/05/26 08:42:40;;;;;;;0.85;0.85;;;;;;;22.71;48.23;100990.00;5353896;33;33636;-83
2022/05/26 08:45:47;;;;;;;1.08;1.08;;;;;;;22.65;50.48;100993.75;5361176;33;33973;-84
2022/05/26 08:49:11;;;;;;;0.83;0.70;;;;;;;22.75;46.66;100985.69;5362646;33;33069;-84
2022/05/26 08:52:19;;;;;;;1.08;0.98;;;;;;;22.72;46.59;100988.09;5366321;33;33544;-83
2022/05/26 08:55:28;;;;;;;0.80;0.80;;;;;;;22.92;46.03;100985.75;5360649;33;32886;-83
2022/05/26 08:58:39;;;;;;;0.85;0.70;;;;;;;22.79;45.04;100995.12;5359011;33;32520;-84
2022/05/26 09:01:44;;;;;;;0.80;0.75;;;;;;;22.75;45.21;100993.09;5357911;33;33831;-83
2022/05/26 09:04:47;;;;;;;2.70;0.90;;;;;;;22.81;45.12;101000.34;5346119;33;32495;-83
2022/05/26 09:14:41;;;;;;;5.18;0.80;;;;;;;23.29;43.83;100988.97;5341804;33;32082;-84
2022/05/26 09:17:44;;;;;;;0.68;0.68;;;;;;;23.36;41.86;100988.78;5353821;33;33869;-85
2022/05/26 09:20:49;;;;;;;0.70;0.70;;;;;;;23.70;42.61;100997.13;5354226;33;33712;-86
2022/05/26 09:23:54;;;;;;;1.12;0.80;;;;;;;23.67;42.51;100992.91;5342013;33;31889;-85
2022/05/26 09:27:05;;;;;;;0.98;0.88;;;;;;;23.63;42.56;100993.66;5345715;33;33180;-84
2022/05/26 09:30:22;;;;;;;0.60;0.60;;;;;;;23.90;41.81;100988.34;5342303;33;32607;-84
2022/05/26 09:33:31;;;;;;;1.20;0.50;;;;;;;24.12;41.04;100988.41;5341603;33;32057;-85
2022/05/26 09:37:02;;;;;;;1.37;0.70;;;;;;;24.24;39.89;100988.28;5365491;33;32091;-84
2022/05/26 09:40:36;;;;;;;0.40;0.40;;;;;;;24.48;39.21;100978.72;5351950;33;34453;-84
2022/05/26 09:43:46;;;;;;;1.30;0.40;;;;;;;24.37;38.79;100985.19;5340680;33;33153;-85
2022/05/26 09:46:52;;;;;;;0.30;0.30;;;;;;;24.58;36.64;100978.88;5362758;33;33256;-84
2022/05/26 09:49:58;;;;;;;0.50;0.50;;;;;;;24.63;35.97;100980.88;5341487;33;32459;-84
2022/05/26 09:53:05;;;;;;;0.43;0.43;;;;;;;24.83;36.12;100983.00;5351970;33;33398;-85
2022/05/26 09:56:12;;;;;;;1.05;0.70;;;;;;;24.78;36.84;100961.75;5346744;33;32524;-88
2022/05/26 09:59:34;;;;;;;1.48;0.98;;;;;;;24.84;36.94;100976.44;5359031;33;35075;-89
2022/05/26 10:02:40;;;;;;;0.68;0.68;;;;;;;24.85;35.59;100964.31;5342997;33;33174;-85
2022/05/26 10:06:15;;;;;;;0.45;0.43;;;;;;;24.87;35.58;100971.22;5345396;33;32114;-85
2022/05/26 10:09:22;;;;;;;0.70;0.70;;;;;;;25.46;33.94;100978.72;5340647;33;32735;-85
2022/05/26 10:12:43;;;;;;;2.05;0.57;;;;;;;25.62;33.39;100974.16;5341143;33;32303;-84
2022/05/26 10:16:11;;;;;;;0.57;0.57;;;;;;;25.89;32.13;100967.78;5344150;33;32117;-85
2022/05/26 10:19:24;;;;;;;0.45;0.45;;;;;;;25.90;32.43;100973.03;5338920;33;31006;-85
2022/05/26 10:22:56;;;;;;;0.85;0.65;;;;;;;25.71;32.73;100974.50;5343062;33;32344;-84
2022/05/26 10:26:28;;;;;;;0.45;0.45;;;;;;;26.33;32.55;100965.56;5347685;33;33795;-89
2022/05/26 10:29:50;;;;;;;0.52;0.52;;;;;;;25.63;33.44;100975.84;5367411;33;33293;-85
2022/05/26 10:33:17;;;;;;;1.90;0.70;;;;;;;25.39;34.01;100966.22;5350762;33;33817;-85
2022/05/26 10:36:49;;;;;;;1.10;0.80;;;;;;;26.07;33.58;100966.50;5358846;33;33202;-85
2022/05/26 10:39:57;;;;;;;0.60;0.50;;;;;;;26.82;33.38;100965.22;5336924;33;33167;-85
2022/05/26 10:43:10;;;;;;;0.50;0.50;;;;;;;27.19;31.64;100961.44;5347988;33;32705;-85
2022/05/26 10:46:18;;;;;;;0.70;0.60;;;;;;;27.15;31.88;100963.09;5343927;33;32075;-85
2022/05/26 10:49:45;;;;;;;0.40;0.40;;;;;;;26.98;32.90;100955.03;5347167;33;33488;-85
2022/05/26 10:53:14;;;;;;;0.65;0.65;;;;;;;27.10;30.21;100966.66;5344071;33;34127;-85
2022/05/26 10:56:35;;;;;;;0.75;0.57;;;;;;;27.58;30.30;100967.28;5343264;33;32213;-85
2022/05/26 10:59:56;;;;;;;0.70;0.55;;;;;;;28.04;30.66;100955.34;5358068;33;34207;-85
2022/05/26 11:03:32;;;;;;;0.60;0.60;;;;;;;28.29;30.04;100950.84;5357702;33;33985;-85
2022/05/26 11:06:39;;;;;;;0.68;0.50;;;;;;;28.26;29.78;100950.28;5360169;33;34387;-85
2022/05/26 11:09:52;;;;;;;0.50;0.50;;;;;;;27.89;29.34;100961.72;5361287;33;33433;-84
2022/05/26 11:13:08;;;;;;;0.50;0.50;;;;;;;28.00;29.04;100960.59;5360091;33;35016;-85
2022/05/26 11:19:50;;;;;;;1.20;0.37;;;;;;;26.32;32.60;100952.81;5348368;33;33715;-85
2022/05/26 11:22:53;;;;;;;0.60;0.60;;;;;;;26.98;30.91;100949.50;5361450;33;34026;-89
2022/05/26 11:26:00;;;;;;;2.35;0.70;;;;;;;26.07;32.37;100949.97;5345552;33;34431;-89
2022/05/26 11:29:21;;;;;;;1.67;0.65;;;;;;;25.96;33.47;100952.63;5370411;33;33922;-85
2022/05/26 11:36:08;;;;;;;0.30;0.30;;;;;;;30.11;26.73;100943.47;5351741;33;33356;-84
2022/05/26 11:39:25;;;;;;;0.80;0.60;;;;;;;31.40;25.82;100945.06;5355624;33;34037;-85
2022/05/26 11:42:34;;;;;;;0.75;0.43;;;;;;;32.69;23.50;100941.47;5343756;33;32072;-85
2022/05/26 11:45:49;;;;;;;0.90;0.62;;;;;;;32.74;24.14;100930.22;5358676;33;33363;-85
2022/05/26 11:48:52;;;;;;;4.05;0.62;;;;;;;31.01;26.11;100939.00;5345471;33;32216;-85
2022/05/26 11:51:55;;;;;;;0.62;0.62;;;;;;;28.66;28.94;100933.78;5353951;33;33894;-85
2022/05/26 11:55:02;;;;;;;1.95;0.60;;;;;;;28.60;30.14;100935.75;5342053;33;31977;-85
2022/05/26 11:58:36;;;;;;;0.75;0.50;;;;;;;30.40;27.71;100930.38;5355123;33;33182;-84
2022/05/26 12:01:39;;;;;;;0.47;0.47;;;;;;;30.90;26.86;100930.81;5358629;33;34410;-88
2022/05/26 12:04:45;;;;;;;1.15;0.45;;;;;;;29.85;28.26;100938.19;5354590;33;33211;-89
2022/05/26 12:07:49;;;;;;;0.40;0.40;;;;;;;31.90;25.87;100924.13;5342552;33;32625;-91
2022/05/26 12:10:55;;;;;;;0.40;0.40;;;;;;;33.25;23.58;100907.84;5358733;33;34369;-85
2022/05/26 12:14:03;;;;;;;0.50;0.50;;;;;;;32.72;23.97;100907.38;5358533;33;33555;-86
2022/05/26 12:17:32;;;;;;;0.50;0.50;;;;;;;33.20;22.87;100894.84;5342296;33;31879;-85
2022/05/26 12:20:38;;;;;;;1.05;0.60;;;;;;;35.39;21.97;100901.53;5343489;33;32830;-85
2022/05/26 12:23:42;;;;;;;0.43;0.40;;;;;;;35.63;20.58;100883.41;5339537;33;33465;-86
2022/05/26 12:26:54;;;;;;;0.37;0.37;;;;;;;32.95;22.88;100880.34;5344238;33;32915;-85
2022/05/26 12:30:05;;;;;;;0.68;0.35;;;;;;;33.49;22.47;100880.41;5347686;33;33740;-85
2022/05/26 12:33:18;;;;;;;0.50;0.50;;;;;;;34.08;22.13;100872.66;5350091;33;32601;-85
2022/05/26 12:36:41;;;;;;;0.70;0.47;;;;;;;35.04;21.06;100877.53;5363049;33;33162;-85
2022/05/26 12:40:04;;;;;;;1.05;0.50;;;;;;;37.06;19.70;100869.47;5347650;33;32129;-85
2022/05/26 12:43:46;;;;;;;0.45;0.37;;;;;;;37.97;18.69;100858.22;5347992;33;32327;-85
2022/05/26 12:47:26;;;;;;;0.30;0.30;;;;;;;36.20;18.97;100870.94;5328770;33;33898;-85
2022/05/26 12:50:28;;;;;;;0.35;0.35;;;;;;;33.08;21.81;100872.25;5337834;33;31725;-85
2022/05/26 12:53:33;;;;;;;0.35;0.35;;;;;;;30.99;24.75;100875.34;5352289;33;33477;-85
2022/05/26 12:56:56;;;;;;;0.68;0.55;;;;;;;29.23;26.72;100876.88;5348897;33;32018;-85
2022/05/26 13:00:24;;;;;;;1.33;0.50;;;;;;;28.70;27.83;100879.47;5335057;33;31889;-85
2022/05/26 13:03:36;;;;;;;0.45;0.45;;;;;;;28.54;27.94;100875.94;5340395;33;34295;-84
2022/05/26 13:06:43;;;;;;;0.50;0.50;;;;;;;27.63;29.87;100874.31;5335396;33;223144;-84
2022/05/26 13:09:51;;;;;;;0.93;0.70;;;;;;;27.73;29.90;100874.28;5339946;33;31900;-84
2022/05/26 13:12:54;;;;;;;0.50;0.43;;;;;;;27.97;28.92;100869.00;5345432;33;34288;-84
2022/05/26 13:16:30;;;;;;;0.50;0.50;;;;;;;28.07;28.96;100868.13;5343761;33;33564;-84
2022/05/26 13:19:41;;;;;;;0.50;0.50;;;;;;;28.52;26.08;100869.03;5325556;33;33510;-88
2022/05/26 13:22:44;;;;;;;0.40;0.40;;;;;;;31.42;23.36;100860.47;5327316;33;32191;-84
2022/05/26 13:25:46;;;;;;;2.37;1.25;;;;;;;32.15;22.44;100855.97;5346843;33;33140;-84
2022/05/26 13:28:56;;;;;;;0.95;0.60;;;;;;;31.83;22.69;100843.81;5343022;33;33469;-84
2022/05/26 13:35:20;;;;;;;0.85;0.65;;;;;;;30.65;24.98;100850.53;5340487;33;32575;-85
2022/05/26 13:38:32;;;;;;;0.47;0.47;;;;;;;32.83;22.25;100843.84;5344784;33;33380;-84
2022/05/26 13:41:37;;;;;;;0.98;0.55;;;;;;;36.31;18.77;100846.97;5342802;33;33350;-85
2022/05/26 13:44:42;;;;;;;1.00;0.50;;;;;;;35.22;19.40;100851.22;5350567;33;34234;-84
2022/05/26 13:47:45;;;;;;;0.85;0.50;;;;;;;35.57;18.56;100842.69;5343074;33;33061;-85
2022/05/26 13:50:51;;;;;;;0.70;0.50;;;;;;;36.77;17.63;100843.16;5342498;33;32229;-84
2022/05/26 13:54:24;;;;;;;0.30;0.30;;;;;;;37.72;16.70;100831.25;5341929;33;32515;-85
2022/05/26 13:57:32;;;;;;;0.40;0.40;;;;;;;37.83;17.15;100840.84;5341577;33;32692;-85
2022/05/26 14:00:37;;;;;;;0.75;0.50;;;;;;;37.48;15.97;100838.50;5339442;33;32549;-86
2022/05/26 14:03:41;;;;;;;1.60;0.47;;;;;;;35.75;18.16;100827.47;5344330;33;33321;-85
2022/05/26 14:06:44;;;;;;;1.37;0.37;;;;;;;34.72;18.68;100830.19;5344082;33;33083;-85
2022/05/26 14:09:59;;;;;;;0.90;0.40;;;;;;;32.27;21.47;100817.25;5328576;33;34491;-85
2022/05/26 14:13:02;;;;;;;0.60;0.50;;;;;;;30.64;23.81;100821.09;5325439;33;32743;-85
2022/05/26 14:16:07;;;;;;;1.23;0.80;;;;;;;28.99;25.77;100815.78;5325861;33;33124;-85
2022/05/26 14:19:18;;;;;;;0.40;0.40;;;;;;;28.66;27.22;100820.19;5342065;33;33743;-89
2022/05/26 14:22:26;;;;;;;0.37;0.37;;;;;;;27.95;28.35;100825.00;5343301;33;33630;-86
2022/05/26 14:25:28;;;;;;;0.65;0.65;;;;;;;27.47;29.13;100827.34;5343503;33;34862;-86
2022/05/26 14:28:36;;;;;;;1.48;0.50;;;;;;;27.29;29.72;100812.16;5328800;33;32227;-85
2022/05/26 14:31:39;;;;;;;0.50;0.50;;;;;;;27.47;30.50;100820.97;5330251;33;34782;-85
2022/05/26 14:34:50;;;;;;;2.05;0.57;;;;;;;27.89;29.05;100815.06;5328742;33;31986;-85
2022/05/26 14:37:52;;;;;;;0.40;0.40;;;;;;;28.10;29.11;100817.72;5315531;33;33525;-85
2022/05/26 14:40:55;;;;;;;0.65;0.40;;;;;;;27.84;29.75;100820.59;5326649;33;32414;-85
2022/05/26 14:44:04;;;;;;;1.45;0.73;;;;;;;27.55;30.39;100815.72;5313018;33;33247;-85
2022/05/26 14:47:07;;;;;;;0.62;0.60;;;;;;;27.50;30.47;100818.47;5342607;33;32976;-85
2022/05/26 14:50:13;;;;;;;2.17;0.70;;;;;;;27.14;31.44;100812.12;5332386;33;33747;-85
2022/05/26 14:53:16;;;;;;;1.85;0.40;;;;;;;27.04;32.23;100810.22;5313596;33;33308;-85
2022/05/26 14:56:19;;;;;;;0.73;0.73;;;;;;;27.01;32.06;100801.66;5343075;33;33469;-85
2022/05/26 14:59:22;;;;;;;1.65;0.70;;;;;;;26.95;31.69;100789.78;5346449;33;33930;-85
2022/05/26 15:02:25;;;;;;;0.98;0.73;;;;;;;26.50;32.91;100801.62;5360849;33;34193;-85
2022/05/26 15:05:29;;;;;;;0.60;0.60;;;;;;;26.40;33.23;100794.94;5347440;33;31783;-85
2022/05/26 15:08:41;;;;;;;0.43;0.43;;;;;;;26.57;33.31;100782.84;5345634;33;32625;-85
2022/05/26 15:11:45;;;;;;;0.60;0.60;;;;;;;26.34;33.17;100785.00;5356500;33;34039;-85
2022/05/26 15:14:47;;;;;;;1.50;0.70;;;;;;;26.23;34.12;100775.03;5346359;33;32996;-85
2022/05/26 15:17:51;;;;;;;0.45;0.45;;;;;;;26.06;34.13;100779.94;5346237;33;32493;-85
2022/05/26 15:20:54;;;;;;;1.20;0.62;;;;;;;25.71;34.99;100778.69;5360172;33;34287;-85
2022/05/26 15:24:04;;;;;;;1.48;1.00;;;;;;;25.69;34.55;100773.44;5348164;33;32126;-85
2022/05/26 15:27:07;;;;;;;0.95;0.82;;;;;;;25.52;35.19;100773.63;5346589;33;31924;-86
2022/05/26 15:30:14;;;;;;;0.73;0.73;;;;;;;25.53;34.45;100772.53;5360106;33;33814;-85
2022/05/26 15:33:16;;;;;;;0.80;0.80;;;;;;;25.38;34.65;100764.19;5345603;33;32548;-84
2022/05/26 15:36:25;;;;;;;0.47;0.47;;;;;;;25.28;35.14;100772.41;5361263;33;33721;-84
2022/05/26 15:39:28;;;;;;;1.75;1.00;;;;;;;25.21;35.39;100767.09;5352259;33;33499;-84
2022/05/26 15:42:31;;;;;;;1.23;0.88;;;;;;;25.18;35.54;100761.31;5364985;33;34106;-84
2022/05/26 15:45:34;;;;;;;1.05;1.00;;;;;;;25.10;35.80;100762.63;5360338;33;33704;-85
2022/05/26 15:48:38;;;;;;;0.98;0.85;;;;;;;24.82;36.04;100774.78;5359745;33;34357;-84
2022/05/26 15:51:41;;;;;;;1.40;0.62;;;;;;;24.87;36.09;100764.66;5349890;33;32664;-84
2022/05/26 15:54:45;;;;;;;0.88;0.85;;;;;;;24.93;35.94;100762.75;5365269;33;33407;-85
2022/05/26 15:57:48;;;;;;;0.52;0.52;;;;;;;24.87;36.46;100761.06;5359735;33;33748;-88
